Terminal Aerodrome Forecast
Issued by NWS

Home | Current Version | Previous Version | Graphics & Text | Print | Product List | Glossary On
Versions: 1 2 3 4 5 6 7 8 9 10 11 12 13 14 15 16
000
FTUS42 KMHX 140547
TAFOAJ
TAF
KOAJ 140547Z 1406/1506 34006KT P6SM OVC015
     FM140900 34005KT P6SM OVC007
     FM141100 34005KT 5SM BR OVC007
     FM141300 34005KT P6SM OVC015
     FM141900 VRB04KT P6SM BKN020
     FM142300 00000KT P6SM BKN050
      AMD LTD TO CLD VIS AND WIND=

USA.gov is the U.S. government's official web portal to all federal, state and local government web resources and services.